Enter the Airport ICAO Code

Search by Airport or City

Current Weather

LEST | Santiago de Compostela Airport

Santiago de Compostela, Galicia, Spain

Last Update 9 Minutes Ago

Light Rain

Temperature of 06 ºC

Light to Moderate Winds from North

Temperature

06 ºC

Dew Point Temperature

06 ºC

Relative Humidity

100 %

Wind Direction

North (360º, Ranging from 330º to 050º)

Wind Velocity

9 km/h (05 kt)

Gusts

None

Visibility

Greater than 10 Kilometers

Sea Level Pressure

0999 hPa (Hectopascals)

Layers of Clouds

30% to 60% of Sky Covered from 366 mts (1200 ft) Above Ground Level.

30% to 60% of Sky Covered from 640 mts (2100 ft) Above Ground Level.

60% to 90% of Sky Covered from 975 mts (3200 ft) Above Ground Level.

METAR LEST 160730Z 36005KT 330V050 9999 -RA SCT012 SCT021 BKN032 06/06 Q0999 TEMPO RA

Weather Forecast

LEST | Santiago de Compostela Airport

Santiago de Compostela, Galicia, Spain

Forecast valid for the next 22 Hours

From now on it is expected:

Mostly Cloudy Sky

Light to Moderate Winds from North

From now on it is expected 1 hour with intermittent periods of:

Fog

Maximum Temperature

08 ºC in 4 Hours

Minimum Temperature

01 ºC in 22 Hours

TAF LEST 160500Z 1606/1706 01009KT 9999 FEW010 BKN030 TX08/1612Z TN01/1706Z TEMPO 1606/1618 3000 RA BKN010 BKN014 TEMPO 1606/1609 1500 -RA BCFG TEMPO 1606/1609 0800 FG